This is the latest recevied weather packets stored in our database for station/object EA5AFP-10. If no packets are shown the sender has not sent any weather packets the latest 1 day(s).
| Time | Temp. | Humidity | Pressure | Rain* | Wind** | Luminosity | Snow |
|---|---|---|---|---|---|---|---|
| 1777989425 | 23.89° C | 4% | - | 0 mm | 0.89 m/s, 112° | - | - |
| 1777989425 | 23.89° C | 4% | - | 0 mm | 0.89 m/s, 112° | - | - |
| 1777989422 | 23.89° C | 4% | - | 0 mm | 0.89 m/s, 112° | - | - |
| 1777989274 | 23.33° C | 4% | - | 0 mm | 2.68 m/s, 90° | - | - |
| 1777989011 | 23.33° C | 4% | - | 0 mm | 2.68 m/s, 112° | - | - |
| 1777988827 | 23.33° C | 4% | - | 0 mm | 4.02 m/s, 67° | - | - |
| 1777988722 | 23.33° C | 5% | - | 0 mm | 4.02 m/s, 90° | - | - |
| 1777988452 | 22.22° C | 5% | - | 0 mm | 4.47 m/s, 112° | - | - |
| 1777988228 | 22.22° C | 6% | - | 0 mm | 5.36 m/s, 67° | - | - |
| 1777988194 | 22.22° C | 6% | - | 0 mm | 5.36 m/s, 67° | - | - |
| 1777987929 | 22.78° C | 6% | - | 0 mm | 3.58 m/s, 67° | - | - |
| 1777987634 | 21.11° C | 6% | - | 0 mm | 5.81 m/s, 67° | - | - |
| 1777987445 | 21.67° C | 6% | - | 0 mm | 3.58 m/s, 90° | - | - |
| 1777987180 | 21.67° C | 6% | - | 0 mm | 4.02 m/s, 112° | - | - |
| 1777986928 | 22.22° C | 6% | - | 0 mm | 4.92 m/s, 67° | - | - |
| 1777986657 | 22.78° C | 6% | - | 0 mm | 4.47 m/s, 112° | - | - |
| 1777986400 | 22.22° C | 6% | - | 0 mm | 4.02 m/s, 67° | - | - |
| 1777986131 | 21.67° C | 6% | - | 0 mm | 5.36 m/s, 67° | - | - |
| 1777985867 | 21.67° C | 6% | - | 0 mm | 5.36 m/s, 135° | - | - |
| 1777985638 | 21.11° C | 6% | - | 0 mm | 5.36 m/s, 67° | - | - |
| 1777985373 | 22.22° C | 6% | - | 0 mm | 3.58 m/s, 112° | - | - |
| 1777985091 | 21.67° C | 6% | - | 0 mm | 5.36 m/s, 67° | - | - |
| 1777985058 | 21.67° C | 6% | - | 0 mm | 5.36 m/s, 67° | - | - |
| 1777984837 | 23.33° C | 6% | - | 0 mm | 4.02 m/s, 67° | - | - |
| 1777984587 | 23.33° C | 6% | - | 0 mm | 3.58 m/s, 112° | - | - |
* Rain latest hour (hover to see other rain measurements)
** Current wind speed in m/s (hover to see current wind gust speed)